createdAt,value
2017-09-29T00:01:54.711Z,37.07
2017-09-29T00:04:23.301Z,36.63
2017-09-29T00:06:52.524Z,40.43
2017-09-29T00:09:20.901Z,38.90
2017-09-29T00:11:49.328Z,39.40
2017-09-29T00:14:17.667Z,34.90
2017-09-29T00:16:46.723Z,34.63
2017-09-29T00:19:15.015Z,33.60
2017-09-29T00:21:43.331Z,35.43
2017-09-29T00:24:11.624Z,39.00
2017-09-29T00:26:40.068Z,34.37
2017-09-29T00:29:08.419Z,31.40
2017-09-29T00:31:37.080Z,34.40
2017-09-29T00:34:05.579Z,44.10
2017-09-29T00:36:34.743Z,32.73
2017-09-29T00:39:03.100Z,34.33
2017-09-29T00:41:32.947Z,38.47
2017-09-29T00:44:01.269Z,35.10
2017-09-29T00:46:29.564Z,34.63
2017-09-29T00:48:59.397Z,28.53
2017-09-29T00:51:27.715Z,33.17
2017-09-29T00:53:56.807Z,31.17
2017-09-29T00:56:25.184Z,38.20
2017-09-29T00:58:53.615Z,35.57
2017-09-29T01:01:22.024Z,41.83
2017-09-29T01:03:50.408Z,32.57
2017-09-29T01:06:18.728Z,31.23
2017-09-29T01:08:47.060Z,32.93
2017-09-29T01:11:16.128Z,34.50
2017-09-29T01:13:44.456Z,32.80
2017-09-29T01:16:12.783Z,32.20
2017-09-29T01:18:41.220Z,35.40
2017-09-29T01:21:09.567Z,33.63
2017-09-29T01:23:38.068Z,35.40
2017-09-29T01:26:06.472Z,39.33
2017-09-29T01:28:35.687Z,33.77
2017-09-29T01:31:04.496Z,38.00
2017-09-29T01:33:32.907Z,30.97
2017-09-29T01:36:01.208Z,32.40
2017-09-29T01:38:29.618Z,34.80
2017-09-29T01:40:57.935Z,28.40
2017-09-29T01:43:27.770Z,29.60
2017-09-29T01:45:56.156Z,36.10
2017-09-29T01:48:24.596Z,31.03
2017-09-29T01:50:52.987Z,32.90
2017-09-29T01:53:22.187Z,30.27
2017-09-29T01:55:51.288Z,30.60
2017-09-29T01:58:19.616Z,32.60
2017-09-29T02:00:47.908Z,31.63
2017-09-29T02:03:16.316Z,35.40
2017-09-29T02:05:44.604Z,29.63
2017-09-29T02:08:12.927Z,28.33
2017-09-29T02:10:41.247Z,29.67
2017-09-29T02:13:09.718Z,28.70
2017-09-29T02:15:38.105Z,32.57
2017-09-29T02:18:07.245Z,33.13
2017-09-29T02:20:35.712Z,29.57
2017-09-29T02:23:04.508Z,28.07
2017-09-29T02:25:34.014Z,30.03
2017-09-29T02:28:02.456Z,30.83
2017-09-29T02:30:30.812Z,23.93
2017-09-29T02:32:59.140Z,28.20
2017-09-29T02:35:27.464Z,31.63
2017-09-29T02:37:55.979Z,31.37
2017-09-29T02:40:24.372Z,27.73
2017-09-29T02:42:53.528Z,24.73
2017-09-29T02:45:21.865Z,25.23
2017-09-29T02:47:50.157Z,27.40
2017-09-29T02:50:18.561Z,34.10
2017-09-29T02:52:46.875Z,37.53
2017-09-29T02:55:15.205Z,28.77
2017-09-29T02:57:45.846Z,32.63
2017-09-29T03:00:16.128Z,28.27
2017-09-29T03:02:54.510Z,28.20
2017-09-29T03:05:25.724Z,29.07
2017-09-29T03:07:54.372Z,28.27
2017-09-29T03:10:22.845Z,25.90
2017-09-29T03:12:51.239Z,25.30
2017-09-29T03:15:20.300Z,32.63
2017-09-29T03:17:48.719Z,31.70
2017-09-29T03:20:17.024Z,23.83
2017-09-29T03:22:45.527Z,24.23
2017-09-29T03:25:13.823Z,24.23
2017-09-29T03:27:42.123Z,28.00
2017-09-29T03:30:10.480Z,23.00
2017-09-29T03:32:39.735Z,26.67
2017-09-29T03:35:08.143Z,24.93
2017-09-29T03:37:36.564Z,28.53
2017-09-29T03:40:05.749Z,24.07
2017-09-29T03:42:34.332Z,30.23
2017-09-29T03:45:02.704Z,26.17
2017-09-29T03:47:31.100Z,25.57
2017-09-29T03:50:02.508Z,27.37
2017-09-29T03:52:32.419Z,23.83
2017-09-29T03:55:02.774Z,23.67
2017-09-29T03:57:33.022Z,23.70
2017-09-29T04:00:01.463Z,24.70
2017-09-29T04:02:30.547Z,24.40
2017-09-29T04:04:58.842Z,26.83
2017-09-29T04:07:27.243Z,30.53
2017-09-29T04:09:55.552Z,24.77
2017-09-29T04:12:24.042Z,23.57
2017-09-29T04:14:52.373Z,24.67
2017-09-29T04:17:22.180Z,24.20
2017-09-29T04:19:50.507Z,25.50
2017-09-29T04:22:18.839Z,23.00
2017-09-29T04:24:47.932Z,24.03
2017-09-29T04:27:16.263Z,29.60
2017-09-29T04:29:45.364Z,27.83
2017-09-29T04:32:13.657Z,31.57
2017-09-29T04:34:42.047Z,26.17
2017-09-29T04:37:10.455Z,26.40
2017-09-29T04:39:38.766Z,29.13
2017-09-29T04:42:07.108Z,24.80
2017-09-29T04:44:35.447Z,23.67
2017-09-29T04:47:03.837Z,26.20
2017-09-29T04:49:32.159Z,25.33
2017-09-29T04:52:00.484Z,28.10
2017-09-29T04:54:28.872Z,25.87
2017-09-29T04:56:57.171Z,33.40
2017-09-29T04:59:25.491Z,27.17
2017-09-29T05:01:53.813Z,26.60
2017-09-29T05:04:22.876Z,26.37
2017-09-29T05:06:51.316Z,26.77
2017-09-29T05:09:19.610Z,25.80
2017-09-29T05:11:47.950Z,36.23
2017-09-29T05:14:17.028Z,28.37
2017-09-29T05:16:45.328Z,30.70
2017-09-29T05:19:13.683Z,26.57
2017-09-29T05:21:41.979Z,21.53
2017-09-29T05:24:10.272Z,24.10
2017-09-29T05:26:39.365Z,25.00
2017-09-29T05:29:07.697Z,29.53
2017-09-29T05:31:36.791Z,26.73
2017-09-29T05:34:05.164Z,27.67
2017-09-29T05:36:33.573Z,22.63
2017-09-29T05:39:01.883Z,31.07
2017-09-29T05:41:30.184Z,28.03
2017-09-29T05:43:58.516Z,31.33
2017-09-29T05:46:27.575Z,31.27
2017-09-29T05:48:55.923Z,30.73
2017-09-29T05:51:24.212Z,28.93
2017-09-29T05:53:52.552Z,27.30
2017-09-29T05:56:21.671Z,34.87
2017-09-29T05:58:49.981Z,28.53
2017-09-29T06:01:18.285Z,27.43
2017-09-29T06:03:47.393Z,23.30
2017-09-29T06:06:16.451Z,27.10
2017-09-29T06:08:44.780Z,22.50
2017-09-29T06:11:13.104Z,31.03
2017-09-29T06:13:42.312Z,26.40
2017-09-29T06:16:10.607Z,30.03
2017-09-29T06:18:38.943Z,30.43
2017-09-29T06:21:08.011Z,30.77
2017-09-29T06:23:36.331Z,31.37
2017-09-29T06:26:05.516Z,27.83
2017-09-29T06:28:33.888Z,24.70
2017-09-29T06:31:03.100Z,29.70
2017-09-29T06:33:31.391Z,26.00
2017-09-29T06:35:59.732Z,29.10
2017-09-29T06:38:28.092Z,24.83
2017-09-29T06:40:56.424Z,25.87
2017-09-29T06:43:24.795Z,28.80
2017-09-29T06:45:53.136Z,27.50
2017-09-29T06:48:21.505Z,26.83
2017-09-29T06:50:49.808Z,30.33
2017-09-29T06:53:18.208Z,28.33
2017-09-29T06:55:46.512Z,31.77
2017-09-29T06:58:14.841Z,26.60
2017-09-29T07:00:44.036Z,28.33
2017-09-29T07:03:12.335Z,34.80
2017-09-29T07:05:40.660Z,28.03
2017-09-29T07:08:09.747Z,28.90
2017-09-29T07:10:38.080Z,27.50
2017-09-29T07:13:07.188Z,27.83
2017-09-29T07:15:36.992Z,29.60
2017-09-29T07:18:05.440Z,28.73
2017-09-29T07:20:33.767Z,25.10
2017-09-29T07:23:02.124Z,27.07
2017-09-29T07:25:31.283Z,29.20
2017-09-29T07:28:00.944Z,27.80
2017-09-29T07:30:30.231Z,30.87
2017-09-29T07:32:58.812Z,26.90
2017-09-29T07:35:27.216Z,28.03
2017-09-29T07:37:55.544Z,25.43
2017-09-29T07:40:23.836Z,32.90
2017-09-29T07:42:52.335Z,27.80
2017-09-29T07:45:20.733Z,30.70
2017-09-29T07:47:49.023Z,26.77
2017-09-29T07:50:17.352Z,26.03
2017-09-29T07:52:45.648Z,27.10
2017-09-29T07:55:14.043Z,27.57
2017-09-29T07:57:42.443Z,25.57
2017-09-29T08:00:10.751Z,29.03
2017-09-29T08:02:39.076Z,30.10
2017-09-29T08:05:07.367Z,36.43
2017-09-29T08:07:37.208Z,26.37
2017-09-29T08:10:05.504Z,26.87
2017-09-29T08:12:35.331Z,27.70
2017-09-29T08:15:05.272Z,27.70
2017-09-29T08:17:33.610Z,28.83
2017-09-29T08:20:02.688Z,27.00
2017-09-29T08:22:31.015Z,29.77
2017-09-29T08:24:59.335Z,31.80
2017-09-29T08:27:28.396Z,25.40
2017-09-29T08:29:56.727Z,29.80
2017-09-29T08:32:25.048Z,25.20
2017-09-29T08:34:54.131Z,25.63
2017-09-29T08:37:22.431Z,31.13
2017-09-29T08:39:50.839Z,29.23
2017-09-29T08:42:19.173Z,30.70
2017-09-29T08:44:48.257Z,32.07
2017-09-29T08:47:16.771Z,27.20
2017-09-29T08:49:45.068Z,29.33
2017-09-29T08:52:13.359Z,29.27
2017-09-29T08:54:41.676Z,27.20
2017-09-29T08:57:09.973Z,27.87
2017-09-29T08:59:38.292Z,26.47
2017-09-29T09:02:06.635Z,29.00
2017-09-29T09:04:34.996Z,26.17
2017-09-29T09:07:03.301Z,30.23
2017-09-29T09:09:32.395Z,29.17
2017-09-29T09:12:00.683Z,28.07
2017-09-29T09:14:29.125Z,22.63
2017-09-29T09:16:58.924Z,29.60
2017-09-29T09:19:27.243Z,31.40
2017-09-29T09:21:55.760Z,24.70
2017-09-29T09:24:24.164Z,27.37
2017-09-29T09:26:52.564Z,29.10
2017-09-29T09:29:21.058Z,24.23
2017-09-29T09:31:49.380Z,25.40
2017-09-29T09:34:17.675Z,23.93
2017-09-29T09:36:46.009Z,25.20
2017-09-29T09:39:15.111Z,27.93
2017-09-29T09:41:44.912Z,23.03
2017-09-29T09:44:13.208Z,26.70
2017-09-29T09:46:41.528Z,34.13
2017-09-29T09:49:09.859Z,30.17
2017-09-29T09:51:39.681Z,25.47
2017-09-29T09:54:08.020Z,24.80
2017-09-29T09:56:37.119Z,30.50
2017-09-29T09:59:05.520Z,33.50
2017-09-29T10:01:34.605Z,26.60
2017-09-29T10:04:03.078Z,28.30
2017-09-29T10:06:31.379Z,26.00
2017-09-29T10:08:59.671Z,30.80
2017-09-29T10:11:28.760Z,27.37
2017-09-29T10:13:57.087Z,26.60
2017-09-29T10:16:26.176Z,33.47
2017-09-29T10:18:54.611Z,24.83
2017-09-29T10:21:23.671Z,38.50
2017-09-29T10:23:51.963Z,28.03
2017-09-29T10:26:20.291Z,25.27
2017-09-29T10:28:48.612Z,31.43
2017-09-29T10:31:16.932Z,33.30
2017-09-29T10:33:45.300Z,29.20
2017-09-29T10:36:13.719Z,23.50
2017-09-29T10:38:42.068Z,22.97
2017-09-29T10:41:11.123Z,24.33
2017-09-29T10:43:39.419Z,25.70
2017-09-29T10:46:07.750Z,23.73
2017-09-29T10:48:36.160Z,20.20
2017-09-29T10:51:05.295Z,21.27
2017-09-29T10:53:34.377Z,22.57
2017-09-29T10:56:02.793Z,26.33
2017-09-29T10:58:32.012Z,28.03
2017-09-29T11:01:00.315Z,26.00
2017-09-29T11:03:28.712Z,23.30
2017-09-29T11:05:57.004Z,22.33
2017-09-29T11:08:25.324Z,22.90
2017-09-29T11:10:53.620Z,24.17
2017-09-29T11:13:21.955Z,21.23
2017-09-29T11:15:51.073Z,24.17
2017-09-29T11:18:19.423Z,20.00
2017-09-29T11:20:47.720Z,17.70
2017-09-29T11:23:16.040Z,19.00
2017-09-29T11:25:44.362Z,16.10
2017-09-29T11:28:12.868Z,18.90
2017-09-29T11:30:41.160Z,18.83
2017-09-29T11:33:09.456Z,16.87
2017-09-29T11:35:37.787Z,16.43
2017-09-29T11:38:06.117Z,16.47
2017-09-29T11:40:35.411Z,17.70
2017-09-29T11:43:03.716Z,16.00
2017-09-29T11:45:32.036Z,14.77
2017-09-29T11:48:01.095Z,15.87
2017-09-29T11:50:29.520Z,18.90
2017-09-29T11:52:57.819Z,15.73
2017-09-29T11:55:26.132Z,17.00
2017-09-29T11:57:54.451Z,16.93
2017-09-29T12:00:22.743Z,16.73
2017-09-29T12:02:51.071Z,16.90
2017-09-29T12:05:20.163Z,20.33
2017-09-29T12:07:48.560Z,18.53
2017-09-29T12:10:16.847Z,14.67
2017-09-29T12:12:45.179Z,15.90
2017-09-29T12:15:14.268Z,18.40
2017-09-29T12:17:42.587Z,14.80
2017-09-29T12:20:10.992Z,14.30
2017-09-29T12:22:39.316Z,15.33
2017-09-29T12:25:07.701Z,17.10
2017-09-29T12:27:36.037Z,14.70
2017-09-29T12:30:05.111Z,17.40
2017-09-29T12:32:33.724Z,16.20
2017-09-29T12:35:02.020Z,18.40
2017-09-29T12:37:30.311Z,14.50
2017-09-29T12:39:58.728Z,15.43
2017-09-29T12:42:27.052Z,18.80
2017-09-29T12:44:55.378Z,15.00
2017-09-29T12:47:24.456Z,17.27
2017-09-29T12:49:52.780Z,16.63
2017-09-29T12:52:21.158Z,16.90
2017-09-29T12:54:49.483Z,16.77
2017-09-29T12:57:17.868Z,14.57
2017-09-29T12:59:46.183Z,17.77
2017-09-29T13:02:14.675Z,14.80
2017-09-29T13:04:42.967Z,14.37
2017-09-29T13:07:11.264Z,17.03
2017-09-29T13:09:39.583Z,14.33
2017-09-29T13:12:07.987Z,16.00
2017-09-29T13:14:36.288Z,15.87
2017-09-29T13:17:04.620Z,13.87
2017-09-29T13:19:33.675Z,18.87
2017-09-29T13:22:02.027Z,13.50
2017-09-29T13:24:31.827Z,16.03
2017-09-29T13:27:00.148Z,13.40
2017-09-29T13:29:28.443Z,16.23
2017-09-29T13:31:56.736Z,15.40
2017-09-29T13:34:25.773Z,17.90
2017-09-29T13:36:54.067Z,13.83
2017-09-29T13:39:22.362Z,20.70
2017-09-29T13:41:50.774Z,16.67
2017-09-29T13:44:19.169Z,14.53
2017-09-29T13:46:47.589Z,17.10
2017-09-29T13:49:15.895Z,19.10
2017-09-29T13:51:45.724Z,22.80
2017-09-29T13:54:14.126Z,25.10
2017-09-29T13:56:42.419Z,15.87
2017-09-29T13:59:10.736Z,19.03
2017-09-29T14:01:39.080Z,18.70
2017-09-29T14:04:08.143Z,17.00
2017-09-29T14:06:36.452Z,21.83
2017-09-29T14:09:04.779Z,17.80
2017-09-29T14:11:33.403Z,19.70
2017-09-29T14:14:02.488Z,19.40
2017-09-29T14:16:30.779Z,18.00
2017-09-29T14:18:59.127Z,18.97
2017-09-29T14:21:28.183Z,16.17
2017-09-29T14:23:56.511Z,17.20
2017-09-29T14:26:24.989Z,16.10
2017-09-29T14:28:53.288Z,15.07
2017-09-29T14:31:21.623Z,17.30
2017-09-29T14:33:50.034Z,17.10
2017-09-29T14:36:18.331Z,16.13
2017-09-29T14:38:46.636Z,17.80
2017-09-29T14:41:15.031Z,15.77
2017-09-29T14:43:43.335Z,18.00
2017-09-29T14:46:11.627Z,21.30
2017-09-29T14:48:39.970Z,19.17
2017-09-29T14:51:09.351Z,16.63
2017-09-29T14:53:37.755Z,17.87
2017-09-29T14:56:06.117Z,18.97
2017-09-29T14:58:34.477Z,16.13
2017-09-29T15:01:04.408Z,18.30
2017-09-29T15:03:32.695Z,19.47
2017-09-29T15:06:00.996Z,33.93
2017-09-29T15:08:29.315Z,50.87
2017-09-29T15:10:57.608Z,24.60
2017-09-29T15:13:25.937Z,18.77
2017-09-29T15:15:54.232Z,19.90
2017-09-29T15:18:22.631Z,18.40
2017-09-29T15:20:50.964Z,17.57
2017-09-29T15:23:20.055Z,25.70
2017-09-29T15:25:48.396Z,20.27
2017-09-29T15:28:17.461Z,20.90
2017-09-29T15:30:45.763Z,23.60
2017-09-29T15:33:14.090Z,21.27
2017-09-29T15:35:42.488Z,27.07
2017-09-29T15:38:10.807Z,25.63
2017-09-29T15:40:39.099Z,21.37
2017-09-29T15:43:07.436Z,18.53
2017-09-29T15:45:36.515Z,19.90
2017-09-29T15:48:04.928Z,20.00
2017-09-29T15:50:33.223Z,17.23
2017-09-29T15:53:02.335Z,18.37
2017-09-29T15:55:30.631Z,17.33
2017-09-29T15:57:58.955Z,16.50
2017-09-29T16:00:28.059Z,19.47
2017-09-29T16:02:56.351Z,17.37
2017-09-29T16:05:24.769Z,16.60
2017-09-29T16:07:53.056Z,17.10
2017-09-29T16:10:21.353Z,17.93
2017-09-29T16:12:49.671Z,16.43
2017-09-29T16:15:18.075Z,15.70
2017-09-29T16:17:46.405Z,20.83
2017-09-29T16:20:14.732Z,21.70
2017-09-29T16:22:43.068Z,17.30
2017-09-29T16:25:11.368Z,19.83
2017-09-29T16:27:39.687Z,17.27
2017-09-29T16:30:08.019Z,20.20
2017-09-29T16:32:37.083Z,17.87
2017-09-29T16:35:05.507Z,15.30
2017-09-29T16:37:33.908Z,19.30
2017-09-29T16:40:02.204Z,16.50
2017-09-29T16:42:30.524Z,15.27
2017-09-29T16:44:58.847Z,16.47
2017-09-29T16:47:28.052Z,19.97
2017-09-29T16:49:57.887Z,18.17
2017-09-29T16:52:26.287Z,15.70
2017-09-29T16:54:54.732Z,17.63
2017-09-29T16:57:23.788Z,19.60
2017-09-29T16:59:52.087Z,18.50
2017-09-29T17:02:20.407Z,21.03
2017-09-29T17:04:48.727Z,15.63
2017-09-29T17:07:17.123Z,17.10
2017-09-29T17:09:45.731Z,16.33
2017-09-29T17:12:14.019Z,18.70
2017-09-29T17:14:42.332Z,17.77
2017-09-29T17:17:10.739Z,16.67
2017-09-29T17:19:39.027Z,15.67
2017-09-29T17:22:07.532Z,18.80
2017-09-29T17:24:35.875Z,21.03
2017-09-29T17:27:05.773Z,17.60
2017-09-29T17:29:34.107Z,15.80
2017-09-29T17:32:02.496Z,16.27
2017-09-29T17:34:31.738Z,19.67
2017-09-29T17:37:00.067Z,18.30
2017-09-29T17:39:28.424Z,19.17
2017-09-29T17:41:56.748Z,21.83
2017-09-29T17:44:25.044Z,20.40
2017-09-29T17:46:53.431Z,18.07
2017-09-29T17:49:21.763Z,17.73
2017-09-29T17:51:50.872Z,18.30
2017-09-29T17:54:19.962Z,23.70
2017-09-29T17:56:48.255Z,18.10
2017-09-29T17:59:16.622Z,19.80
2017-09-29T18:01:45.709Z,19.27
2017-09-29T18:04:14.104Z,25.27
2017-09-29T18:06:42.448Z,17.73
2017-09-29T18:09:11.527Z,18.10
2017-09-29T18:11:39.848Z,17.13
2017-09-29T18:14:09.144Z,16.07
2017-09-29T18:16:38.362Z,17.87
2017-09-29T18:19:06.684Z,18.60
2017-09-29T18:21:36.007Z,20.23
2017-09-29T18:24:04.415Z,19.80
2017-09-29T18:26:32.710Z,16.10
2017-09-29T18:29:01.804Z,17.53
2017-09-29T18:31:30.232Z,16.23
2017-09-29T18:33:58.551Z,15.00
2017-09-29T18:36:26.844Z,19.80
2017-09-29T18:38:55.172Z,17.23
2017-09-29T18:41:27.849Z,16.57
2017-09-29T18:44:11.943Z,16.03
2017-09-29T18:46:47.664Z,15.40
2017-09-29T18:49:15.999Z,19.17
2017-09-29T18:51:45.912Z,20.90
2017-09-29T18:54:16.798Z,17.50
2017-09-29T18:56:45.091Z,15.70
2017-09-29T18:59:13.508Z,14.77
2017-09-29T19:01:41.906Z,15.60
2017-09-29T19:04:10.227Z,15.23
2017-09-29T19:06:39.287Z,16.47
2017-09-29T19:09:07.628Z,23.80
2017-09-29T19:11:35.948Z,17.17
2017-09-29T19:14:04.645Z,21.20
2017-09-29T19:22:28.869Z,16.80
2017-09-29T19:24:58.690Z,16.03
2017-09-29T19:27:29.004Z,14.93
2017-09-29T19:29:57.464Z,19.13
2017-09-29T19:32:25.855Z,17.47
2017-09-29T19:34:54.747Z,17.23
2017-09-29T19:37:23.124Z,13.70
2017-09-29T19:39:51.459Z,16.80
2017-09-29T19:42:19.876Z,18.87
2017-09-29T19:44:48.280Z,15.20
2017-09-29T19:47:16.610Z,13.13
2017-09-29T19:49:46.412Z,21.83
2017-09-29T19:52:14.710Z,15.10
2017-09-29T19:54:43.027Z,19.47
2017-09-29T19:57:11.367Z,14.60
2017-09-29T19:59:40.455Z,12.53
2017-09-29T20:02:09.183Z,19.20
2017-09-29T20:04:39.064Z,14.73
2017-09-29T20:07:07.459Z,15.20
2017-09-29T20:09:36.060Z,14.00
2017-09-29T20:12:05.026Z,17.00
2017-09-29T20:14:34.387Z,20.30
2017-09-29T20:17:02.749Z,15.60
2017-09-29T20:19:31.073Z,17.50
2017-09-29T20:21:59.584Z,14.87
2017-09-29T20:24:27.948Z,15.30
2017-09-29T20:26:56.307Z,14.43
2017-09-29T20:29:25.503Z,13.83
2017-09-29T20:31:54.709Z,14.33
2017-09-29T20:34:23.055Z,16.00
2017-09-29T20:36:52.118Z,16.53
2017-09-29T20:39:20.407Z,15.57
2017-09-29T20:41:48.751Z,14.00
2017-09-29T20:44:17.055Z,14.37
2017-09-29T20:46:45.395Z,16.17
2017-09-29T20:49:14.491Z,18.47
2017-09-29T20:51:42.815Z,16.27
2017-09-29T20:54:11.998Z,17.90
2017-09-29T20:56:40.495Z,14.63
2017-09-29T20:59:09.112Z,16.23
2017-09-29T21:01:37.817Z,20.20
2017-09-29T21:04:06.295Z,20.13
2017-09-29T21:06:34.643Z,22.20
2017-09-29T21:09:03.070Z,22.03
2017-09-29T21:11:31.451Z,15.23
2017-09-29T21:13:59.747Z,14.63
2017-09-29T21:16:28.080Z,15.40
2017-09-29T21:18:57.372Z,14.90
2017-09-29T21:21:26.395Z,18.97
2017-09-29T21:23:55.294Z,16.13
2017-09-29T21:26:24.439Z,15.10
2017-09-29T21:28:52.736Z,15.67
2017-09-29T21:31:21.072Z,19.57
2017-09-29T21:33:50.164Z,15.20
2017-09-29T21:36:18.564Z,23.67
2017-09-29T21:38:46.904Z,20.90
2017-09-29T21:41:15.991Z,16.13
2017-09-29T21:43:44.389Z,15.70
2017-09-29T21:46:12.683Z,21.30
2017-09-29T21:48:41.192Z,20.57
2017-09-29T21:51:09.889Z,16.90
2017-09-29T21:53:38.595Z,17.53
2017-09-29T21:56:07.027Z,18.17
2017-09-29T21:58:36.471Z,16.97
2017-09-29T22:01:04.946Z,19.07
2017-09-29T22:03:33.351Z,16.90
2017-09-29T22:06:01.722Z,26.93
2017-09-29T22:08:30.021Z,18.00
2017-09-29T22:10:58.338Z,15.93
2017-09-29T22:13:26.667Z,18.90
2017-09-29T22:15:55.162Z,18.60
2017-09-29T22:18:23.615Z,20.30
2017-09-29T22:20:52.815Z,20.80
2017-09-29T22:23:21.895Z,20.33
2017-09-29T22:25:50.198Z,18.30
2017-09-29T22:28:18.535Z,16.27
2017-09-29T22:30:46.931Z,15.13
2017-09-29T22:33:15.231Z,20.03
2017-09-29T22:35:43.568Z,19.60
2017-09-29T22:38:11.941Z,20.07
2017-09-29T22:40:40.272Z,23.03
2017-09-29T22:43:09.396Z,26.70
2017-09-29T22:45:37.980Z,17.80
2017-09-29T22:48:07.788Z,23.70
2017-09-29T22:50:36.212Z,22.20
2017-09-29T22:53:05.586Z,24.30
2017-09-29T22:55:34.002Z,19.73
2017-09-29T22:58:02.326Z,25.70
2017-09-29T23:00:30.619Z,23.40
2017-09-29T23:02:59.195Z,18.70
2017-09-29T23:05:27.672Z,19.00
2017-09-29T23:07:56.817Z,19.60
2017-09-29T23:10:25.223Z,20.30
2017-09-29T23:12:54.458Z,24.33
2017-09-29T23:15:23.111Z,22.10
2017-09-29T23:17:52.343Z,20.27
2017-09-29T23:20:20.736Z,18.87
2017-09-29T23:22:49.062Z,25.23
2017-09-29T23:25:17.456Z,22.20
2017-09-29T23:27:45.860Z,26.73
2017-09-29T23:30:14.159Z,25.87
2017-09-29T23:32:42.458Z,25.13
2017-09-29T23:35:10.951Z,19.47
2017-09-29T23:37:39.315Z,20.70
2017-09-29T23:40:07.816Z,21.20
2017-09-29T23:42:36.386Z,23.30
2017-09-29T23:45:04.971Z,19.30
2017-09-29T23:47:33.555Z,21.40
2017-09-29T23:50:01.859Z,23.23
2017-09-29T23:52:30.155Z,21.00
2017-09-29T23:54:58.488Z,21.03
2017-09-29T23:57:26.811Z,22.67
2017-09-29T23:59:55.332Z,20.03
